Time;durP1;ratioP1;P1;durP2;ratioP2;P2;SDS_P1;SDS_P2;PMS_P1;PMS_P2;Temp;Humidity;BMP_temperature;BMP_pressure;BME280_temperature;BME280_humidity;BME280_pressure;Samples;Min_cycle;Max_cycle;Signal;HPM_P1;HPM_P2
2023/03/30 04:16:58;;;;;;;12.82;8.05;;;;;;;3.79;91.21;100690.66;5562403;32;198971;-85
2023/03/30 04:20:10;;;;;;;15.15;8.45;;;;;;;3.72;91.56;100695.13;5546808;32;34037;-84
2023/03/30 04:23:20;;;;;;;14.43;8.80;;;;;;;3.76;91.00;100694.19;5547827;32;34015;-85
2023/03/30 04:26:23;;;;;;;14.32;8.40;;;;;;;3.75;91.63;100681.09;5548134;32;34505;-85
2023/03/30 04:29:28;;;;;;;21.42;9.57;;;;;;;3.75;93.86;100671.47;5547699;32;34199;-85
2023/03/30 04:32:37;;;;;;;16.87;9.15;;;;;;;3.74;93.89;100679.34;5549870;32;34543;-84
2023/03/30 04:35:40;;;;;;;15.05;8.73;;;;;;;3.74;95.18;100684.59;5546135;32;34560;-84
2023/03/30 04:38:58;;;;;;;18.90;9.30;;;;;;;3.74;96.60;100684.59;5546505;32;33803;-84
2023/03/30 04:42:03;;;;;;;16.85;8.88;;;;;;;3.76;96.92;100686.31;5547314;32;33783;-85
2023/03/30 04:45:07;;;;;;;15.75;8.57;;;;;;;3.83;96.21;100687.06;5547322;32;34159;-85
2023/03/30 04:48:12;;;;;;;14.93;9.05;;;;;;;3.94;94.98;100691.28;5547004;32;34022;-85
2023/03/30 04:51:18;;;;;;;18.27;9.43;;;;;;;4.03;94.25;100675.38;5548038;32;32539;-85
2023/03/30 04:54:21;;;;;;;17.40;9.43;;;;;;;4.12;91.68;100675.19;5548976;32;34083;-85
2023/03/30 04:57:25;;;;;;;15.05;9.63;;;;;;;4.17;91.52;100662.84;5548175;32;33846;-85
2023/03/30 05:00:30;;;;;;;17.23;9.15;;;;;;;4.27;90.33;100674.06;5553925;32;34472;-84
2023/03/30 05:03:35;;;;;;;14.57;8.75;;;;;;;4.47;87.98;100670.16;5559198;32;34177;-85
2023/03/30 05:06:38;;;;;;;18.17;9.48;;;;;;;4.40;87.11;100676.44;5569875;32;35096;-85
2023/03/30 05:09:41;;;;;;;14.68;9.10;;;;;;;4.42;88.32;100667.66;5571674;32;33794;-85
2023/03/30 05:12:45;;;;;;;15.75;9.77;;;;;;;4.47;87.18;100679.84;5563762;31;34628;-85
2023/03/30 05:15:55;;;;;;;15.07;9.32;;;;;;;4.48;86.68;100676.31;5557767;32;35031;-85
2023/03/30 05:18:59;;;;;;;;;;;;;;;4.63;85.65;100685.66;5547289;32;33998;-84
2023/03/30 05:22:03;;;;;;;19.95;9.10;;;;;;;4.70;83.86;100675.00;5546107;32;34274;-89
2023/03/30 05:25:07;;;;;;;15.07;9.30;;;;;;;4.77;83.42;100675.72;5553787;32;33694;-88
2023/03/30 05:28:11;;;;;;;18.58;9.65;;;;;;;4.83;83.54;100672.94;5553131;32;35334;-88
2023/03/30 05:31:16;;;;;;;19.20;9.40;;;;;;;5.13;80.47;100667.06;5546484;32;34714;-84
2023/03/30 05:34:20;;;;;;;14.80;9.10;;;;;;;5.02;81.36;100669.06;5528916;32;34605;-84
2023/03/30 05:37:23;;;;;;;14.35;9.35;;;;;;;5.09;81.03;100666.25;5534896;32;34616;-83
2023/03/30 05:40:27;;;;;;;15.05;9.40;;;;;;;5.22;79.77;100672.13;5534380;32;34302;-84
2023/03/30 05:43:35;;;;;;;14.82;9.40;;;;;;;5.37;78.55;100664.75;5538060;32;34722;-85
2023/03/30 05:46:41;;;;;;;16.10;9.70;;;;;;;5.47;76.51;100655.75;5553716;32;34919;-85
2023/03/30 05:49:45;;;;;;;15.80;9.93;;;;;;;5.65;76.06;100656.22;5555537;32;34969;-83
2023/03/30 05:52:48;;;;;;;16.12;9.85;;;;;;;5.68;74.67;100650.87;5557848;32;34101;-84
2023/03/30 05:55:52;;;;;;;19.75;9.82;;;;;;;5.83;75.45;100654.88;5574288;32;35236;-84
2023/03/30 05:58:57;;;;;;;17.65;9.43;;;;;;;5.99;73.91;100650.06;5581234;32;36362;-83
2023/03/30 06:02:02;;;;;;;16.65;10.13;;;;;;;6.00;73.08;100648.31;5574284;32;33894;-83
2023/03/30 06:05:07;;;;;;;17.20;10.40;;;;;;;6.14;72.11;100656.75;5560876;32;34705;-84
2023/03/30 06:08:10;;;;;;;18.05;9.90;;;;;;;6.17;73.44;100658.44;5560413;32;34107;-83
2023/03/30 06:11:15;;;;;;;17.73;9.13;;;;;;;6.80;70.88;100650.56;5550821;32;33898;-83
2023/03/30 06:14:18;;;;;;;18.45;9.65;;;;;;;7.54;65.08;100659.69;5556233;32;34083;-85
2023/03/30 06:17:23;;;;;;;16.55;9.07;;;;;;;7.76;64.11;100665.16;5560020;32;34758;-84
2023/03/30 06:20:26;;;;;;;15.77;8.68;;;;;;;8.08;61.62;100652.62;5561954;32;34090;-83
2023/03/30 06:23:29;;;;;;;14.63;8.95;;;;;;;7.84;62.86;100650.84;5550509;32;34325;-84
2023/03/30 06:26:35;;;;;;;13.38;8.55;;;;;;;7.74;63.01;100651.13;5562175;32;33632;-84
2023/03/30 06:29:38;;;;;;;14.45;8.57;;;;;;;7.58;62.43;100640.22;5563932;32;33968;-86
2023/03/30 06:32:42;;;;;;;16.65;9.07;;;;;;;6.98;65.33;100640.31;5558353;32;34676;-86
2023/03/30 06:35:49;;;;;;;17.15;8.82;;;;;;;7.01;64.88;100638.47;5553998;32;33721;-84
2023/03/30 06:38:52;;;;;;;12.77;8.40;;;;;;;6.96;65.85;100634.25;5544986;32;35061;-83
2023/03/30 06:41:55;;;;;;;13.20;8.77;;;;;;;6.92;66.60;100622.06;5556804;32;34017;-83
2023/03/30 06:44:59;;;;;;;15.02;8.50;;;;;;;6.83;66.81;100621.44;5553841;32;34154;-83
2023/03/30 06:48:03;;;;;;;15.93;8.90;;;;;;;6.93;66.72;100621.16;5562288;32;34713;-83
2023/03/30 06:51:07;;;;;;;13.00;8.80;;;;;;;6.90;66.71;100631.78;5566957;32;34504;-84
2023/03/30 06:54:10;;;;;;;14.40;9.00;;;;;;;6.80;67.43;100623.31;5543356;32;34796;-84
2023/03/30 06:57:16;;;;;;;17.87;9.57;;;;;;;6.77;68.21;100621.62;5550640;32;33614;-84
2023/03/30 07:00:20;;;;;;;14.85;8.95;;;;;;;6.77;68.02;100620.75;5551549;32;34293;-84
2023/03/30 07:03:28;;;;;;;18.42;9.63;;;;;;;6.74;68.29;100630.47;5549021;32;32688;-83
2023/03/30 07:06:33;;;;;;;20.30;9.65;;;;;;;6.66;68.80;100624.59;5555865;32;33556;-83
2023/03/30 07:09:36;;;;;;;16.27;9.30;;;;;;;6.69;68.87;100626.25;5566635;32;32661;-84
2023/03/30 07:12:42;;;;;;;16.45;9.15;;;;;;;6.80;69.36;100625.94;5546613;32;33898;-87
2023/03/30 07:15:46;;;;;;;19.87;9.90;;;;;;;6.79;69.37;100632.12;5560363;32;34187;-88
2023/03/30 07:18:50;;;;;;;22.10;9.25;;;;;;;6.63;70.05;100629.09;5564642;32;35185;-84
2023/03/30 07:21:53;;;;;;;17.37;9.30;;;;;;;6.58;70.52;100629.19;5563730;32;33708;-84
2023/03/30 07:24:58;;;;;;;15.43;9.10;;;;;;;6.41;71.29;100627.94;5572183;32;34244;-84
2023/03/30 07:28:05;;;;;;;15.35;9.25;;;;;;;6.63;70.68;100627.28;5566790;32;34967;-84
2023/03/30 07:31:12;;;;;;;15.23;9.27;;;;;;;6.70;70.85;100620.06;5564212;32;33994;-85
2023/03/30 07:34:16;;;;;;;14.50;9.23;;;;;;;6.90;70.04;100632.66;5562038;32;34073;-85
2023/03/30 07:37:19;;;;;;;17.45;9.50;;;;;;;7.13;69.35;100631.97;5568798;32;34075;-85
2023/03/30 07:40:23;;;;;;;16.75;9.25;;;;;;;7.19;69.26;100633.53;5558443;32;33991;-84
2023/03/30 07:43:27;;;;;;;14.07;8.45;;;;;;;7.44;68.66;100630.09;5573265;32;34220;-84
2023/03/30 07:46:30;;;;;;;15.15;9.77;;;;;;;7.88;67.66;100623.37;5583250;32;35727;-84
2023/03/30 07:49:35;;;;;;;15.63;9.35;;;;;;;8.20;65.29;100616.97;5555019;32;34143;-84
2023/03/30 07:52:39;;;;;;;16.48;9.27;;;;;;;8.24;65.20;100620.34;5554558;32;34834;-84
2023/03/30 07:55:43;;;;;;;20.60;9.63;;;;;;;8.36;64.96;100622.56;5571724;32;34254;-85
2023/03/30 07:58:46;;;;;;;15.55;9.07;;;;;;;8.94;63.36;100628.38;5555608;32;34214;-86
2023/03/30 08:01:50;;;;;;;15.85;9.05;;;;;;;9.12;62.04;100628.59;5562327;32;34757;-86
2023/03/30 08:04:54;;;;;;;15.32;9.77;;;;;;;9.70;62.02;100625.34;5557441;32;34066;-86
2023/03/30 08:07:58;;;;;;;16.92;9.57;;;;;;;10.02;58.18;100614.31;5539053;32;33549;-86
2023/03/30 08:11:02;;;;;;;15.73;9.63;;;;;;;10.16;58.15;100620.78;5556416;32;34416;-87
2023/03/30 08:14:07;;;;;;;14.77;9.55;;;;;;;10.09;57.55;100628.13;5554644;32;33745;-86
2023/03/30 08:17:11;;;;;;;15.02;9.52;;;;;;;10.23;56.72;100620.44;5556945;32;34092;-86
2023/03/30 08:20:14;;;;;;;15.63;9.48;;;;;;;10.63;55.87;100619.59;5555413;32;34706;-87
2023/03/30 08:23:18;;;;;;;14.70;9.45;;;;;;;10.54;56.29;100610.28;5562879;32;34560;-85
2023/03/30 08:26:21;;;;;;;15.95;9.23;;;;;;;10.85;56.06;100605.31;5566878;32;33914;-86
2023/03/30 08:29:24;;;;;;;20.73;10.05;;;;;;;10.40;56.48;100610.84;5554196;32;34281;-85
2023/03/30 08:32:27;;;;;;;23.12;11.00;;;;;;;10.17;58.44;100606.59;5549189;32;32630;-85
2023/03/30 08:35:30;;;;;;;17.35;10.20;;;;;;;10.38;58.03;100612.72;5563896;32;34836;-85
2023/03/30 08:38:32;;;;;;;19.08;10.55;;;;;;;10.02;58.98;100618.72;5559433;32;34543;-83
2023/03/30 08:41:35;;;;;;;15.95;10.10;;;;;;;10.10;59.63;100608.66;5553077;32;34523;-85
2023/03/30 08:44:51;;;;;;;15.57;10.07;;;;;;;9.89;59.65;100611.31;5550986;32;34047;-85
2023/03/30 08:47:54;;;;;;;20.40;10.70;;;;;;;9.65;61.12;100615.88;5551581;32;34382;-85
2023/03/30 08:51:01;;;;;;;17.42;10.63;;;;;;;9.70;60.76;100612.09;5561686;32;34599;-85
2023/03/30 08:54:09;;;;;;;15.88;10.50;;;;;;;9.94;60.54;100613.75;5562241;32;34085;-84
2023/03/30 08:57:37;;;;;;;13.48;9.45;;;;;;;9.89;60.95;100606.00;5554170;32;34377;-84
2023/03/30 09:01:05;;;;;;;17.80;9.95;;;;;;;10.04;61.41;100598.31;5557291;32;34326;-84
2023/03/30 09:04:19;;;;;;;15.27;10.23;;;;;;;10.46;60.64;100605.31;5506216;32;35045;-84
2023/03/30 09:07:45;;;;;;;16.90;9.98;;;;;;;10.47;60.31;100604.38;5554463;32;33829;-84
2023/03/30 09:10:57;;;;;;;18.42;10.10;;;;;;;9.76;60.94;100583.63;5520464;32;33929;-83
2023/03/30 09:14:04;;;;;;;14.10;9.82;;;;;;;9.86;62.52;100579.63;5552658;32;32790;-84
2023/03/30 09:17:37;;;;;;;14.63;10.63;;;;;;;10.41;61.25;100575.44;5545779;32;34323;-83
2023/03/30 09:20:45;;;;;;;16.50;10.55;;;;;;;10.31;60.98;100571.53;5548507;32;34542;-84
2023/03/30 09:23:49;;;;;;;15.75;11.12;;;;;;;10.55;60.68;100582.81;5557451;32;34231;-83
2023/03/30 09:27:07;;;;;;;16.83;10.55;;;;;;;10.51;60.43;100581.22;5550287;32;34166;-84
2023/03/30 09:30:19;;;;;;;16.10;10.73;;;;;;;10.12;60.95;100569.69;5551965;32;33729;-89
2023/03/30 09:33:45;;;;;;;18.73;10.50;;;;;;;10.23;61.89;100563.91;5554344;32;34194;-85
2023/03/30 09:36:51;;;;;;;17.20;11.12;;;;;;;10.49;63.12;100559.22;5551973;32;33848;-84
2023/03/30 09:39:57;;;;;;;18.65;10.93;;;;;;;10.82;60.99;100568.31;5547154;32;33680;-84
2023/03/30 09:43:13;;;;;;;19.62;10.93;;;;;;;10.87;61.09;100561.00;5555434;32;34774;-84
2023/03/30 09:46:16;;;;;;;16.87;11.32;;;;;;;11.09;61.30;100549.31;5556975;32;34424;-84
2023/03/30 09:49:19;;;;;;;15.55;10.60;;;;;;;11.24;60.05;100551.25;5564326;32;34145;-84
2023/03/30 09:52:25;;;;;;;16.17;8.70;;;;;;;11.96;59.97;100534.31;5556050;32;34305;-84
2023/03/30 09:55:32;;;;;;;21.20;12.88;;;;;;;12.65;58.54;100542.16;5556633;32;34290;-84
2023/03/30 09:58:35;;;;;;;18.52;11.25;;;;;;;12.93;54.65;100546.78;5563783;32;33780;-82
2023/03/30 10:01:38;;;;;;;18.98;11.88;;;;;;;12.30;55.49;100543.19;5557454;32;36581;-84
2023/03/30 10:04:57;;;;;;;23.55;11.82;;;;;;;12.10;57.17;100531.81;5554600;32;34294;-85
2023/03/30 10:08:16;;;;;;;19.17;11.07;;;;;;;12.51;55.96;100530.50;5553742;32;34206;-85
2023/03/30 10:11:28;;;;;;;17.92;11.32;;;;;;;12.77;55.70;100525.50;5558530;32;34918;-85
2023/03/30 10:14:34;;;;;;;14.80;11.30;;;;;;;13.34;54.77;100528.50;5550252;32;34820;-85
2023/03/30 10:17:39;;;;;;;19.30;11.77;;;;;;;12.80;55.34;100529.81;5547181;32;34199;-85
2023/03/30 10:20:50;;;;;;;18.42;12.57;;;;;;;12.55;56.12;100531.19;5554849;32;34113;-84
2023/03/30 10:24:21;;;;;;;21.85;12.63;;;;;;;11.88;58.62;100516.13;5556870;32;34960;-86
2023/03/30 10:27:33;;;;;;;14.57;10.95;;;;;;;11.89;59.70;100512.53;5550128;32;34104;-85
2023/03/30 10:30:36;;;;;;;17.77;12.40;;;;;;;12.17;59.27;100508.41;5556085;32;34719;-85
2023/03/30 10:33:42;;;;;;;17.20;12.10;;;;;;;11.89;59.56;100499.25;5552921;32;34432;-85
2023/03/30 10:36:47;;;;;;;21.85;12.52;;;;;;;11.73;61.30;100492.06;5553081;32;34040;-85
2023/03/30 10:39:54;;;;;;;22.75;13.45;;;;;;;12.01;60.77;100487.06;5553688;32;33858;-84
2023/03/30 10:42:59;;;;;;;24.87;13.07;;;;;;;12.13;60.29;100480.28;5555446;32;35080;-84
2023/03/30 10:46:30;;;;;;;20.33;12.95;;;;;;;12.23;60.72;100464.69;5554233;32;34456;-84
2023/03/30 10:49:47;;;;;;;23.45;13.02;;;;;;;12.44;59.59;100475.03;5549299;32;33530;-84
2023/03/30 10:53:09;;;;;;;20.58;13.43;;;;;;;12.40;59.31;100477.03;5555633;32;34170;-84
2023/03/30 10:56:27;;;;;;;24.20;13.23;;;;;;;12.25;60.66;100462.78;5558186;32;35289;-85
2023/03/30 10:59:36;;;;;;;20.50;13.62;;;;;;;11.86;61.92;100454.19;5560622;32;34180;-84
2023/03/30 11:02:50;;;;;;;20.00;13.68;;;;;;;12.38;60.83;100450.50;5565263;32;34367;-85
2023/03/30 11:05:57;;;;;;;19.98;13.50;;;;;;;12.70;58.88;100446.97;5558731;32;35178;-88
2023/03/30 11:09:07;;;;;;;18.30;14.00;;;;;;;12.75;58.62;100447.56;5574910;32;34433;-88
2023/03/30 11:12:18;;;;;;;20.90;13.32;;;;;;;12.89;57.47;100454.75;5584490;32;34578;-85
2023/03/30 11:15:28;;;;;;;19.37;13.35;;;;;;;13.01;57.96;100452.28;5570867;32;34280;-85
2023/03/30 11:18:51;;;;;;;20.15;13.02;;;;;;;13.08;57.76;100453.66;5579943;32;34166;-84
2023/03/30 11:22:01;;;;;;;22.55;13.55;;;;;;;13.29;57.16;100442.69;5546136;32;35155;-85
2023/03/30 11:25:20;;;;;;;22.17;13.55;;;;;;;13.59;57.22;100445.31;5549968;32;34363;-85
2023/03/30 11:28:44;;;;;;;22.60;14.45;;;;;;;12.66;58.51;100443.63;5556067;32;34321;-84
2023/03/30 11:32:31;;;;;;;19.90;13.73;;;;;;;12.10;61.08;100435.22;5573717;31;34561;-85
2023/03/30 11:35:52;;;;;;;20.73;13.32;;;;;;;12.16;61.92;100437.53;5537583;32;34559;-85
2023/03/30 11:39:06;;;;;;;22.05;14.32;;;;;;;12.36;63.08;100433.78;5548577;32;33611;-86
2023/03/30 11:42:28;;;;;;;22.45;14.38;;;;;;;12.39;61.84;100425.59;5546537;32;34112;-86
2023/03/30 11:45:45;;;;;;;21.15;13.15;;;;;;;12.22;62.63;100423.91;5549317;32;34136;-85
2023/03/30 11:48:57;;;;;;;19.35;13.70;;;;;;;12.54;61.98;100415.91;5560223;32;34507;-85
2023/03/30 11:52:06;;;;;;;19.48;12.77;;;;;;;12.75;60.74;100409.44;5533567;32;34585;-85
2023/03/30 11:55:58;;;;;;;20.35;13.62;;;;;;;12.94;60.94;100401.22;5562198;32;34157;-85
2023/03/30 11:59:05;;;;;;;23.17;13.75;;;;;;;12.91;60.71;100412.03;5473328;32;34753;-85
2023/03/30 12:03:00;;;;;;;19.52;13.18;;;;;;;13.48;59.30;100402.50;5466894;32;35511;-85
2023/03/30 12:06:51;;;;;;;24.90;14.32;;;;;;;13.60;59.25;100400.84;5491504;32;34305;-87
2023/03/30 12:09:59;;;;;;;18.58;13.38;;;;;;;13.41;59.16;100393.09;5471847;32;34630;-86
2023/03/30 12:13:15;;;;;;;20.40;13.43;;;;;;;13.46;59.37;100377.72;5550639;32;34000;-85
2023/03/30 12:16:43;;;;;;;19.27;12.95;;;;;;;13.53;59.93;100375.56;5559467;32;33764;-84
2023/03/30 12:19:53;;;;;;;22.30;13.25;;;;;;;13.82;59.33;100364.84;5561016;32;34904;-85
2023/03/30 12:23:20;;;;;;;17.20;12.48;;;;;;;13.69;60.15;100352.28;5559754;32;36438;-85
2023/03/30 12:26:26;;;;;;;18.42;13.13;;;;;;;13.84;59.63;100345.13;5563835;31;34990;-86
2023/03/30 12:30:13;;;;;;;22.27;13.57;;;;;;;13.87;58.98;100344.94;5558989;32;34975;-89
2023/03/30 12:33:22;;;;;;;17.30;12.77;;;;;;;14.02;58.68;100332.44;5512408;32;35046;-85
2023/03/30 12:37:01;;;;;;;18.20;12.95;;;;;;;14.27;58.70;100330.81;5550767;32;34020;-85
2023/03/30 12:40:13;;;;;;;20.50;12.88;;;;;;;14.23;58.80;100326.62;5535099;32;34333;-85
2023/03/30 12:43:35;;;;;;;25.55;13.32;;;;;;;14.06;60.12;100321.53;5536206;32;35681;-85
2023/03/30 12:46:58;;;;;;;17.73;12.70;;;;;;;13.78;59.96;100308.19;5546711;32;33677;-85
2023/03/30 12:50:00;;;;;;;18.37;13.23;;;;;;;14.01;60.61;100298.72;5556450;32;33510;-85
2023/03/30 12:53:12;;;;;;;21.37;12.40;;;;;;;14.18;59.90;100298.56;5562324;32;34086;-86
2023/03/30 12:56:46;;;;;;;18.90;12.32;;;;;;;14.31;59.79;100291.44;5557348;32;34134;-86
2023/03/30 13:00:27;;;;;;;20.08;12.57;;;;;;;14.47;59.59;100279.72;5557823;32;34335;-85
2023/03/30 13:03:38;;;;;;;21.05;13.40;;;;;;;14.49;60.51;100277.81;5566279;32;34646;-86
2023/03/30 13:06:51;;;;;;;;;;;;;;;14.44;60.01;100270.13;5566700;32;34592;-86
2023/03/30 13:09:58;;;;;;;19.37;13.15;;;;;;;14.59;59.96;100265.53;5567244;32;34102;-86
2023/03/30 13:13:03;;;;;;;16.08;12.57;;;;;;;14.61;59.45;100270.78;5560358;32;34826;-86
2023/03/30 13:16:08;;;;;;;19.73;13.13;;;;;;;14.20;61.43;100265.50;5558157;32;34009;-86
2023/03/30 13:19:32;;;;;;;19.37;12.40;;;;;;;14.04;61.88;100275.47;5569366;32;34694;-87
2023/03/30 13:22:35;;;;;;;21.60;12.57;;;;;;;14.29;61.55;100267.53;5581772;32;33879;-87
2023/03/30 13:25:58;;;;;;;18.73;12.18;;;;;;;14.57;61.11;100271.97;5576168;32;33910;-87
2023/03/30 13:29:15;;;;;;;17.58;10.45;;;;;;;14.58;60.86;100261.16;5574724;32;34137;-87
2023/03/30 13:32:39;;;;;;;14.02;10.82;;;;;;;14.45;60.96;100261.16;5560958;32;34885;-91
2023/03/30 13:36:11;;;;;;;15.57;10.88;;;;;;;14.48;60.54;100255.59;5553743;32;34721;-85
2023/03/30 13:39:30;;;;;;;15.30;10.98;;;;;;;14.29;61.44;100254.19;5554478;32;34330;-85
2023/03/30 13:42:51;;;;;;;18.48;10.77;;;;;;;14.35;61.46;100244.06;5559649;32;34076;-88
2023/03/30 13:46:10;;;;;;;14.13;11.15;;;;;;;14.40;61.43;100253.44;5563844;32;34451;-87
2023/03/30 13:49:57;;;;;;;19.50;10.45;;;;;;;14.33;62.18;100248.66;5581346;32;34158;-87
2023/03/30 13:53:09;;;;;;;16.40;10.80;;;;;;;14.47;62.15;100243.22;5581181;32;35317;-87
2023/03/30 13:56:13;;;;;;;15.57;10.15;;;;;;;14.52;61.05;100232.22;5552784;32;34714;-91
2023/03/30 13:59:20;;;;;;;17.92;10.70;;;;;;;14.64;61.22;100231.38;5565888;32;34132;-92
2023/03/30 14:02:28;;;;;;;14.35;9.90;;;;;;;14.69;60.92;100223.06;5548004;32;32630;-86
2023/03/30 14:05:33;;;;;;;14.82;9.88;;;;;;;14.84;59.64;100212.31;5555923;32;34084;-86
2023/03/30 14:08:37;;;;;;;12.98;9.82;;;;;;;14.81;60.27;100202.69;5567257;32;34732;-86
2023/03/30 14:11:45;;;;;;;14.45;9.50;;;;;;;14.73;60.76;100194.34;5559817;32;34638;-86
2023/03/30 14:14:49;;;;;;;15.32;9.40;;;;;;;14.19;62.46;100190.91;5536386;32;33200;-85
2023/03/30 14:17:55;;;;;;;11.77;9.48;;;;;;;14.13;63.58;100176.19;5565596;32;33815;-85
2023/03/30 14:21:02;;;;;;;13.68;10.02;;;;;;;14.01;64.30;100178.72;5569376;32;34088;-85
2023/03/30 14:24:11;;;;;;;15.48;10.35;;;;;;;13.96;64.75;100171.97;5565063;32;34261;-85
2023/03/30 14:27:15;;;;;;;15.68;9.60;;;;;;;14.01;64.76;100169.84;5559930;32;34206;-85
2023/03/30 14:30:20;;;;;;;16.70;9.75;;;;;;;14.10;64.54;100163.03;5558331;32;33929;-83
2023/03/30 14:33:24;;;;;;;19.37;10.00;;;;;;;14.32;64.27;100165.09;5565683;32;34753;-84
2023/03/30 14:36:27;;;;;;;13.77;9.80;;;;;;;14.38;63.97;100145.97;5567290;32;33907;-84
2023/03/30 14:39:32;;;;;;;19.83;10.98;;;;;;;14.24;64.61;100132.75;5562586;32;33650;-84
2023/03/30 14:42:38;;;;;;;17.00;10.90;;;;;;;14.02;65.59;100132.41;5570820;32;33873;-83
2023/03/30 14:45:40;;;;;;;18.58;10.85;;;;;;;14.09;65.90;100118.66;5559359;32;33887;-83
2023/03/30 14:48:47;;;;;;;17.48;11.00;;;;;;;14.23;65.61;100123.88;5560977;32;34275;-83
2023/03/30 14:52:00;;;;;;;17.80;10.95;;;;;;;13.97;66.38;100109.66;5562099;32;35255;-83
2023/03/30 14:55:05;;;;;;;19.00;11.00;;;;;;;13.98;66.98;100104.25;5554488;32;34221;-84
2023/03/30 14:58:15;;;;;;;18.90;11.35;;;;;;;13.98;67.10;100093.56;5557983;32;35128;-84
2023/03/30 15:01:24;;;;;;;18.98;12.40;;;;;;;14.18;66.72;100090.50;5554514;32;34800;-84
2023/03/30 15:04:32;;;;;;;18.12;10.85;;;;;;;14.14;66.19;100092.53;5554596;32;34270;-83
2023/03/30 15:07:36;;;;;;;14.32;11.00;;;;;;;14.35;66.57;100089.31;5553927;32;34225;-83
2023/03/30 15:10:52;;;;;;;15.98;10.82;;;;;;;14.32;65.84;100078.88;5554319;32;34138;-85
2023/03/30 15:14:01;;;;;;;17.40;10.45;;;;;;;14.38;65.55;100076.59;5554595;32;34057;-89
2023/03/30 15:17:10;;;;;;;14.65;10.20;;;;;;;14.51;64.59;100068.59;5554493;32;34630;-86
2023/03/30 15:20:13;;;;;;;16.30;10.02;;;;;;;14.22;66.17;100065.28;5553726;32;35763;-85
